Time;durP1;ratioP1;P1;durP2;ratioP2;P2;SDS_P1;SDS_P2;PMS_P1;PMS_P2;Temp;Humidity;BMP_temperature;BMP_pressure;BME280_temperature;BME280_humidity;BME280_pressure;Samples;Min_cycle;Max_cycle;Signal;HPM_P1;HPM_P2
2022/01/14 00:02:17;;;;;;;22.13;6.18;;;;;;;10.32;46.92;103615.72;4953752;29;20024;-69
2022/01/14 00:04:42;;;;;;;13.75;6.82;;;;;;;10.33;47.13;103607.59;4953906;29;20114;-69
2022/01/14 00:07:07;;;;;;;12.80;5.38;;;;;;;10.33;46.62;103593.34;4953783;29;20540;-68
2022/01/14 00:09:34;;;;;;;22.15;6.35;;;;;;;10.34;47.07;103597.75;4936580;29;20015;-67
2022/01/14 00:12:03;;;;;;;21.50;6.82;;;;;;;10.34;46.85;103604.00;4918059;29;20030;-69
2022/01/14 00:14:42;;;;;;;24.27;6.10;;;;;;;10.36;47.06;103604.81;4953596;29;20027;-68
2022/01/14 00:17:12;;;;;;;19.33;6.10;;;;;;;10.37;46.83;103603.00;4956056;28;20099;-69
2022/01/14 00:19:38;;;;;;;21.05;6.35;;;;;;;10.37;47.02;103603.00;4957642;29;20030;-68
2022/01/14 00:22:09;;;;;;;24.65;5.95;;;;;;;10.37;47.05;103600.31;4957704;29;20031;-69
2022/01/14 00:35:29;;;;;;;13.55;5.30;;;;;;;10.37;47.26;103582.44;4940457;29;20019;-68
2022/01/14 00:37:55;;;;;;;12.50;5.30;;;;;;;10.37;47.24;103576.22;4957318;29;20042;-69
2022/01/14 00:40:20;;;;;;;11.35;5.68;;;;;;;10.39;47.38;103568.97;4957588;29;20023;-68
2022/01/14 00:42:48;;;;;;;15.88;6.38;;;;;;;10.40;47.27;103570.72;4957600;29;20027;-68
2022/01/14 00:45:13;;;;;;;13.07;6.00;;;;;;;10.41;47.14;103565.28;4940231;28;20105;-69
2022/01/14 00:47:40;;;;;;;18.23;6.20;;;;;;;10.42;46.87;103575.09;4924093;29;20477;-68
2022/01/14 00:50:09;;;;;;;10.85;5.22;;;;;;;10.45;47.01;103576.78;4940359;29;20039;-69
2022/01/14 00:52:39;;;;;;;16.27;6.70;;;;;;;10.46;47.85;103570.50;4957526;29;20031;-69
2022/01/14 00:55:07;;;;;;;13.02;5.75;;;;;;;10.46;47.52;103574.06;4924917;29;20388;-68
2022/01/14 01:00:17;;;;;;;15.90;5.93;;;;;;;10.48;47.62;103565.94;4957336;28;20412;-68
2022/01/14 01:02:43;;;;;;;14.68;5.78;;;;;;;10.51;47.16;103571.19;4957851;29;20042;-68
2022/01/14 01:05:09;;;;;;;13.30;5.78;;;;;;;10.52;46.96;103562.22;4956499;28;20031;-69
2022/01/14 01:07:34;;;;;;;15.45;6.47;;;;;;;10.54;46.57;103557.66;4956734;29;20027;-68
2022/01/14 01:09:59;;;;;;;18.83;5.63;;;;;;;10.57;47.33;103552.19;4957024;29;20408;-68
2022/01/14 01:12:35;;;;;;;12.30;5.75;;;;;;;10.60;47.34;103556.53;4923960;29;20023;-68
2022/01/14 01:15:09;;;;;;;12.82;5.90;;;;;;;10.57;47.20;103552.19;4957384;29;20551;-68
2022/01/14 01:17:35;;;;;;;15.02;6.50;;;;;;;10.56;47.54;103553.09;4941289;29;20034;-69
2022/01/14 01:20:09;;;;;;;12.88;6.18;;;;;;;10.55;47.00;103548.69;4940028;29;20125;-68
2022/01/14 01:22:34;;;;;;;10.55;5.65;;;;;;;10.53;47.63;103545.19;4941269;29;20069;-68
2022/01/14 01:25:00;;;;;;;10.90;6.65;;;;;;;10.56;47.54;103542.38;4939710;29;20118;-69
2022/01/14 01:27:25;;;;;;;12.43;6.45;;;;;;;10.55;47.29;103537.97;4939741;29;20029;-68
2022/01/14 01:30:01;;;;;;;13.82;6.93;;;;;;;10.57;46.96;103541.47;4957046;29;20020;-69
2022/01/14 01:32:26;;;;;;;14.55;5.53;;;;;;;10.58;47.51;103536.97;4941432;29;20042;-69
2022/01/14 01:34:51;;;;;;;13.60;5.93;;;;;;;10.53;47.57;103529.09;4956614;29;20035;-68
2022/01/14 01:37:17;;;;;;;17.52;6.25;;;;;;;10.55;47.92;103531.75;4956486;29;20557;-69
2022/01/14 01:39:42;;;;;;;15.68;6.40;;;;;;;10.51;48.00;103526.50;4956256;29;20028;-68
2022/01/14 01:42:09;;;;;;;12.18;5.00;;;;;;;10.51;47.36;103530.97;4938876;29;20026;-69
2022/01/14 01:44:37;;;;;;;12.18;5.35;;;;;;;10.48;47.38;103529.31;4956123;29;20075;-69
2022/01/14 01:47:03;;;;;;;12.07;5.72;;;;;;;10.45;46.80;103534.78;4956573;28;20086;-68
2022/01/14 01:49:32;;;;;;;12.57;5.40;;;;;;;10.42;47.15;103526.00;4956105;29;20023;-68
2022/01/14 01:51:58;;;;;;;13.15;5.28;;;;;;;10.40;47.22;103527.88;4939381;29;20466;-68
2022/01/14 01:54:24;;;;;;;13.70;5.50;;;;;;;10.39;47.13;103536.81;4956392;29;20387;-68
2022/01/14 01:56:49;;;;;;;10.68;5.85;;;;;;;10.38;47.25;103540.47;4956425;29;20365;-69
2022/01/14 01:59:16;;;;;;;8.70;5.07;;;;;;;10.36;47.53;103543.19;4956252;29;20110;-68
2022/01/14 02:01:42;;;;;;;11.57;5.75;;;;;;;10.35;47.44;103538.78;4956617;29;20074;-68
2022/01/14 02:04:08;;;;;;;10.27;5.57;;;;;;;10.35;47.40;103540.56;4956219;29;20481;-68
2022/01/14 02:06:37;;;;;;;12.43;6.25;;;;;;;10.33;46.71;103537.94;4938884;29;20031;-68
2022/01/14 02:09:02;;;;;;;18.40;6.60;;;;;;;10.32;47.58;103535.34;4956228;29;20042;-68
2022/01/14 02:11:27;;;;;;;15.20;6.78;;;;;;;10.31;47.37;103539.81;4923221;29;20027;-68
2022/01/14 02:13:56;;;;;;;13.40;6.50;;;;;;;10.30;47.04;103531.84;4956050;29;20059;-69
2022/01/14 02:17:00;;;;;;;12.23;6.30;;;;;;;10.30;47.39;103523.81;4956335;29;20026;-68
2022/01/14 02:19:29;;;;;;;11.13;5.63;;;;;;;10.28;47.14;103520.31;4955786;29;20481;-69
2022/01/14 02:22:11;;;;;;;12.13;6.47;;;;;;;10.28;47.06;103520.31;4956052;29;20110;-68
2022/01/14 02:27:09;;;;;;;15.02;6.45;;;;;;;10.25;47.58;103517.75;4956752;29;20507;-68
2022/01/14 02:29:35;;;;;;;16.40;7.00;;;;;;;10.23;46.76;103511.59;4956706;29;20031;-68
2022/01/14 02:32:00;;;;;;;13.40;6.50;;;;;;;10.20;47.60;103498.31;4956527;29;20035;-69
2022/01/14 02:34:26;;;;;;;23.05;7.30;;;;;;;10.21;47.41;103505.44;4956540;29;20504;-68
2022/01/14 02:36:52;;;;;;;23.10;6.45;;;;;;;10.18;47.24;103501.06;4956462;29;20406;-68
2022/01/14 02:39:19;;;;;;;12.40;6.40;;;;;;;10.15;46.69;103501.19;4938589;29;20178;-68
2022/01/14 02:41:46;;;;;;;13.90;6.32;;;;;;;10.14;46.99;103495.88;4956409;29;20484;-68
2022/01/14 02:44:22;;;;;;;15.73;6.05;;;;;;;10.09;46.84;103500.50;4956399;29;20432;-68
2022/01/14 02:46:56;;;;;;;13.57;6.28;;;;;;;10.09;46.89;103495.16;4956402;28;20027;-68
2022/01/14 02:49:26;;;;;;;15.85;5.95;;;;;;;10.06;47.44;103498.84;4956391;29;20476;-68
2022/01/14 02:51:52;;;;;;;16.30;6.70;;;;;;;10.06;47.27;103503.31;4956317;29;20535;-68
2022/01/14 02:54:22;;;;;;;13.80;6.47;;;;;;;10.02;47.04;103491.88;4956003;29;20031;-68
2022/01/14 02:56:52;;;;;;;20.83;7.43;;;;;;;10.02;46.33;103483.84;4939471;29;20049;-68
2022/01/14 02:59:19;;;;;;;12.95;6.75;;;;;;;10.04;46.94;103473.06;4955727;29;20043;-68
2022/01/14 03:01:46;;;;;;;15.13;6.18;;;;;;;10.03;46.86;103484.69;4938859;29;20027;-68
2022/01/14 03:04:14;;;;;;;18.10;7.45;;;;;;;10.03;46.90;103479.31;4955844;29;20114;-68
2022/01/14 03:06:40;;;;;;;10.43;6.05;;;;;;;10.03;47.26;103479.31;4955798;29;20075;-68
2022/01/14 03:09:06;;;;;;;9.15;6.00;;;;;;;10.01;46.90;103481.19;4955752;29;20478;-69
2022/01/14 03:11:42;;;;;;;22.65;6.82;;;;;;;10.01;47.28;103478.53;4938546;29;20110;-68
2022/01/14 03:14:09;;;;;;;14.82;6.78;;;;;;;9.99;47.27;103473.25;4956029;29;20102;-68
2022/01/14 03:16:39;;;;;;;21.73;7.03;;;;;;;9.98;46.67;103479.53;4938692;29;20476;-68
2022/01/14 03:19:09;;;;;;;14.20;6.43;;;;;;;9.97;47.36;103479.59;4955709;29;20110;-68
2022/01/14 03:21:40;;;;;;;13.02;6.95;;;;;;;9.97;47.24;103474.25;4955746;29;20504;-68
2022/01/14 03:26:45;;;;;;;15.55;5.97;;;;;;;9.91;46.95;103478.00;4955860;29;20117;-68
2022/01/14 03:29:11;;;;;;;14.27;6.72;;;;;;;9.89;47.18;103478.06;4955897;29;20357;-68
2022/01/14 03:31:37;;;;;;;22.20;6.97;;;;;;;9.88;47.01;103468.28;4955837;29;20027;-68
2022/01/14 03:34:02;;;;;;;18.13;7.65;;;;;;;9.88;47.11;103465.59;4938461;29;20069;-68
2022/01/14 03:36:27;;;;;;;17.23;7.95;;;;;;;9.87;47.77;103461.22;4955542;29;20029;-68
2022/01/14 03:38:53;;;;;;;14.48;6.97;;;;;;;9.89;47.23;103464.69;4938339;29;20034;-68
2022/01/14 03:41:18;;;;;;;18.92;7.05;;;;;;;9.90;46.91;103462.88;4955322;29;20059;-68
2022/01/14 03:43:43;;;;;;;15.88;6.72;;;;;;;9.91;47.10;103469.97;4955427;29;20042;-68
2022/01/14 03:46:09;;;;;;;17.23;7.40;;;;;;;9.90;46.88;103463.75;4955599;28;20046;-68
2022/01/14 03:48:35;;;;;;;17.35;7.43;;;;;;;9.92;47.07;103461.00;4938408;29;20484;-68
2022/01/14 03:51:00;;;;;;;16.92;7.90;;;;;;;9.93;47.35;103460.09;4954609;28;20082;-69
2022/01/14 03:53:26;;;;;;;23.02;7.93;;;;;;;9.95;46.89;103451.06;4955344;29;20023;-68
2022/01/14 03:55:51;;;;;;;19.05;7.90;;;;;;;9.95;46.96;103443.03;4955213;29;20035;-68
2022/01/14 03:58:17;;;;;;;21.30;7.80;;;;;;;9.98;47.51;103438.47;4955317;29;20033;-69
2022/01/14 04:00:42;;;;;;;28.00;8.73;;;;;;;9.99;47.86;103440.25;4938114;29;20091;-68
2022/01/14 04:03:08;;;;;;;29.02;7.65;;;;;;;9.98;46.68;103438.47;4955379;29;20023;-69
2022/01/14 04:05:34;;;;;;;22.92;8.60;;;;;;;9.98;48.02;103436.69;4955225;29;20459;-68
2022/01/14 04:07:59;;;;;;;22.33;8.95;;;;;;;10.01;47.52;103449.06;4955279;29;20019;-68
2022/01/14 04:10:26;;;;;;;28.38;9.13;;;;;;;10.03;48.15;103431.13;4955089;29;20059;-68
2022/01/14 04:13:05;;;;;;;24.42;7.97;;;;;;;10.04;48.07;103438.25;4955165;29;20154;-69
2022/01/14 04:15:37;;;;;;;27.00;8.93;;;;;;;10.03;47.30;103426.66;4939910;29;20055;-68
2022/01/14 04:18:08;;;;;;;22.88;9.30;;;;;;;10.06;47.95;103433.69;4955143;29;20511;-68
2022/01/14 04:20:35;;;;;;;21.35;7.60;;;;;;;10.07;48.11;103436.31;4938209;29;20038;-69
2022/01/14 04:23:00;;;;;;;21.02;8.10;;;;;;;10.10;47.97;103429.97;4955365;29;20384;-69
2022/01/14 04:25:26;;;;;;;16.38;7.72;;;;;;;10.11;48.02;103423.66;4937877;29;20029;-68
2022/01/14 04:27:52;;;;;;;18.23;7.97;;;;;;;10.14;47.95;103420.88;4955044;29;20019;-69
2022/01/14 04:30:17;;;;;;;20.30;7.00;;;;;;;10.14;47.98;103419.09;4955116;29;20020;-69
2022/01/14 04:32:43;;;;;;;24.02;7.43;;;;;;;10.14;47.69;103416.41;4937752;29;20062;-68
2022/01/14 04:35:09;;;;;;;23.00;8.43;;;;;;;10.18;47.84;103419.84;4955014;29;20114;-68
2022/01/14 04:37:34;;;;;;;20.50;7.95;;;;;;;10.18;47.59;103417.16;4954985;29;20027;-69
2022/01/14 04:40:00;;;;;;;28.67;8.85;;;;;;;10.20;47.64;103423.31;4955016;29;20061;-67
2022/01/14 04:42:27;;;;;;;28.55;8.73;;;;;;;10.22;48.01;103421.44;4954506;28;20027;-67
2022/01/14 04:44:54;;;;;;;26.75;8.63;;;;;;;10.26;47.73;103417.72;4938099;29;20035;-68
2022/01/14 04:47:32;;;;;;;28.00;9.55;;;;;;;10.26;47.53;103423.94;4955013;28;20027;-68
2022/01/14 04:49:58;;;;;;;22.90;10.02;;;;;;;10.26;47.97;103417.72;4954851;29;20114;-68
2022/01/14 04:52:24;;;;;;;33.08;10.25;;;;;;;10.27;47.85;103414.97;4937437;29;20385;-68
2022/01/14 04:54:49;;;;;;;34.22;10.15;;;;;;;10.29;48.09;103422.94;4937521;29;20034;-68
2022/01/14 04:57:16;;;;;;;34.70;10.65;;;;;;;10.32;47.74;103420.16;4954085;28;20035;-68
2022/01/14 04:59:46;;;;;;;29.73;9.35;;;;;;;10.34;48.29;103420.94;4954618;29;20051;-69
2022/01/14 05:02:11;;;;;;;32.80;11.40;;;;;;;10.36;48.55;103419.94;4955610;28;20033;-68
2022/01/14 05:04:38;;;;;;;30.17;9.93;;;;;;;10.38;48.23;103411.84;4958235;29;20110;-68
2022/01/14 05:07:03;;;;;;;24.88;9.77;;;;;;;10.40;48.02;103415.34;4941058;29;20031;-68
2022/01/14 05:09:38;;;;;;;29.30;9.50;;;;;;;10.42;48.21;103405.41;4958073;29;20388;-68
2022/01/14 05:12:07;;;;;;;17.17;9.55;;;;;;;10.47;48.30;103392.69;4958067;29;20480;-69
2022/01/14 05:14:33;;;;;;;22.40;8.55;;;;;;;10.48;48.17;103398.00;4941289;29;20049;-68
2022/01/14 05:16:59;;;;;;;24.30;8.40;;;;;;;10.51;47.65;103397.00;4958006;29;20058;-69
2022/01/14 05:19:25;;;;;;;20.77;7.93;;;;;;;10.53;47.65;103400.47;4957847;29;20587;-68
2022/01/14 05:21:50;;;;;;;15.93;7.50;;;;;;;10.54;48.39;103402.22;4957931;29;20029;-68
2022/01/14 05:24:15;;;;;;;22.17;7.40;;;;;;;10.55;47.90;103403.09;4940625;29;20027;-68
2022/01/14 05:26:41;;;;;;;15.68;6.97;;;;;;;10.56;48.01;103410.19;4957879;29;20078;-68
2022/01/14 05:29:06;;;;;;;16.55;7.78;;;;;;;10.55;47.94;103403.09;4957997;29;20023;-68
2022/01/14 05:31:45;;;;;;;17.42;7.22;;;;;;;10.53;47.94;103412.06;4957705;29;20042;-69
2022/01/14 05:34:10;;;;;;;15.07;7.32;;;;;;;10.54;48.09;103412.94;4940705;29;20033;-68
2022/01/14 05:36:36;;;;;;;16.88;7.30;;;;;;;10.51;48.43;103413.94;4957510;29;20031;-67
2022/01/14 05:39:01;;;;;;;16.75;7.72;;;;;;;10.51;48.27;103418.44;4957421;29;20030;-69
2022/01/14 05:41:27;;;;;;;14.63;6.97;;;;;;;10.54;48.11;103423.66;4957417;29;20031;-68
2022/01/14 05:43:52;;;;;;;14.10;7.18;;;;;;;10.55;48.10;103417.38;4957523;29;20491;-68
2022/01/14 05:46:17;;;;;;;14.07;7.38;;;;;;;10.57;48.13;103428.91;4957748;28;20432;-69
2022/01/14 05:49:01;;;;;;;16.10;6.70;;;;;;;10.61;47.80;103430.50;4957434;29;20392;-69
2022/01/14 05:51:26;;;;;;;18.80;7.43;;;;;;;10.62;47.70;103429.56;4957345;29;20059;-68
2022/01/14 05:53:52;;;;;;;21.90;8.55;;;;;;;10.64;47.37;103429.47;4957443;29;20166;-68
2022/01/14 05:56:17;;;;;;;17.02;7.00;;;;;;;10.65;47.91;103420.50;4957218;29;20089;-68
2022/01/14 05:58:42;;;;;;;19.08;7.75;;;;;;;10.66;47.68;103423.16;4956842;29;20469;-67
2022/01/14 06:01:08;;;;;;;14.55;7.20;;;;;;;10.67;47.42;103430.22;4940095;29;20031;-68
2022/01/14 06:03:33;;;;;;;26.20;7.63;;;;;;;10.65;48.17;103410.69;4940018;29;20059;-69
2022/01/14 06:05:58;;;;;;;12.43;7.03;;;;;;;10.65;47.61;103421.41;4940395;29;20023;-68
2022/01/14 06:08:24;;;;;;;20.05;7.32;;;;;;;10.64;47.80;103416.09;4957065;29;20015;-68
2022/01/14 06:10:49;;;;;;;21.98;8.10;;;;;;;10.63;48.30;103412.56;4956992;29;20078;-68
2022/01/14 06:13:14;;;;;;;12.75;6.70;;;;;;;10.61;47.50;103414.41;4956668;28;20082;-69
2022/01/14 06:15:40;;;;;;;15.40;7.93;;;;;;;10.57;47.61;103407.47;4956480;29;20027;-68
2022/01/14 06:18:05;;;;;;;20.52;7.57;;;;;;;10.55;47.90;103403.97;4939501;29;20392;-68
2022/01/14 06:20:30;;;;;;;26.00;8.13;;;;;;;10.51;47.39;103405.91;4956928;29;20086;-68
2022/01/14 06:22:56;;;;;;;15.10;7.20;;;;;;;10.48;47.67;103399.81;4939949;29;20035;-69
2022/01/14 06:25:21;;;;;;;17.00;7.47;;;;;;;10.46;47.95;103393.66;4956754;29;20020;-67
2022/01/14 06:27:46;;;;;;;14.48;7.97;;;;;;;10.42;47.43;103394.69;4956801;29;20062;-68
2022/01/14 06:30:12;;;;;;;20.27;7.75;;;;;;;10.41;47.72;103398.34;4956659;29;20499;-68
2022/01/14 06:32:41;;;;;;;25.08;8.63;;;;;;;10.39;47.67;103386.78;4956597;29;20070;-68
2022/01/14 06:35:12;;;;;;;17.10;6.97;;;;;;;10.40;47.87;103388.53;4956583;29;20024;-68
2022/01/14 06:37:38;;;;;;;20.10;8.48;;;;;;;10.38;47.43;103385.06;4939489;29;20484;-68
2022/01/14 06:40:04;;;;;;;19.75;8.68;;;;;;;10.37;47.41;103381.50;4956814;29;20444;-68
2022/01/14 06:42:30;;;;;;;24.75;8.95;;;;;;;10.36;47.74;103377.06;4956402;29;20031;-68
2022/01/14 06:44:55;;;;;;;22.17;8.52;;;;;;;10.36;47.56;103381.56;4956541;29;20038;-68
2022/01/14 06:47:22;;;;;;;17.35;8.45;;;;;;;10.35;47.57;103374.47;4956239;29;20027;-69
2022/01/14 06:49:48;;;;;;;24.65;7.75;;;;;;;10.33;47.77;103381.72;4956519;29;20433;-69
2022/01/14 06:52:13;;;;;;;29.75;8.55;;;;;;;10.30;47.69;103374.66;4956058;29;20078;-68
2022/01/14 06:54:38;;;;;;;19.63;8.45;;;;;;;10.28;47.84;103389.06;4956388;29;20023;-69
2022/01/14 06:57:04;;;;;;;16.77;8.68;;;;;;;10.29;47.81;103385.44;4956070;29;20082;-68
2022/01/14 06:59:29;;;;;;;18.65;8.55;;;;;;;10.27;47.59;103385.50;4955896;28;20191;-69
2022/01/14 07:01:55;;;;;;;22.95;9.93;;;;;;;10.27;47.41;103387.31;4955978;29;20038;-68
2022/01/14 07:04:20;;;;;;;19.55;8.40;;;;;;;10.26;47.75;103386.44;4956001;29;20027;-69
2022/01/14 07:06:45;;;;;;;26.98;9.30;;;;;;;10.27;47.84;103395.38;4955847;29;20027;-69
2022/01/14 07:09:11;;;;;;;23.67;8.43;;;;;;;10.28;47.40;103397.09;4955930;29;20384;-69
2022/01/14 07:11:37;;;;;;;27.40;8.38;;;;;;;10.28;47.72;103392.59;4938650;29;20035;-68
2022/01/14 07:14:04;;;;;;;24.15;8.98;;;;;;;10.32;47.77;103412.97;4956070;29;20569;-67
2022/01/14 07:16:30;;;;;;;15.98;8.48;;;;;;;10.33;47.63;103403.16;4955872;29;20024;-68
2022/01/14 07:18:55;;;;;;;23.83;8.82;;;;;;;10.36;47.43;103411.03;4955935;29;20027;-68
2022/01/14 07:21:20;;;;;;;16.27;8.20;;;;;;;10.36;47.91;103408.34;4955676;29;20027;-68
2022/01/14 07:23:46;;;;;;;16.58;8.43;;;;;;;10.37;48.25;103415.47;4955974;29;20110;-68
2022/01/14 07:26:11;;;;;;;21.17;9.05;;;;;;;10.37;48.00;103420.81;4955594;28;20497;-67
2022/01/14 07:28:37;;;;;;;24.25;8.40;;;;;;;10.39;47.96;103418.94;4955617;29;20024;-68
2022/01/14 07:31:02;;;;;;;20.10;8.07;;;;;;;10.39;47.33;103418.94;4955573;29;20035;-68
2022/01/14 07:33:28;;;;;;;21.27;8.10;;;;;;;10.39;48.01;103408.22;4955445;29;20388;-68
2022/01/14 07:35:53;;;;;;;22.85;8.48;;;;;;;10.37;47.60;103410.09;4938619;29;20063;-68
2022/01/14 07:38:18;;;;;;;16.83;7.22;;;;;;;10.37;47.77;103423.50;4955337;29;20047;-68
2022/01/14 07:40:44;;;;;;;16.85;7.22;;;;;;;10.37;47.41;103431.53;4955403;29;20469;-68
2022/01/14 07:43:09;;;;;;;18.55;7.00;;;;;;;10.34;47.24;103420.94;4955460;29;20484;-68
2022/01/14 07:45:35;;;;;;;19.88;7.55;;;;;;;10.34;47.62;103415.59;4955523;28;20468;-68
2022/01/14 07:48:00;;;;;;;19.30;7.32;;;;;;;10.34;47.62;103415.59;4955648;29;20031;-68
2022/01/14 07:50:25;;;;;;;22.08;7.55;;;;;;;10.32;47.73;103412.09;4955379;29;20394;-68
2022/01/14 07:52:51;;;;;;;15.88;7.55;;;;;;;10.29;47.87;103402.41;4955326;29;20385;-68
2022/01/14 07:55:16;;;;;;;18.17;7.20;;;;;;;10.26;46.93;103401.66;4955171;29;20037;-67
2022/01/14 07:57:42;;;;;;;22.27;7.80;;;;;;;10.25;47.46;103418.63;4922188;29;20039;-69
2022/01/14 08:00:08;;;;;;;17.13;6.43;;;;;;;10.23;47.36;103408.00;4954894;29;20578;-68
2022/01/14 08:02:34;;;;;;;14.20;7.30;;;;;;;10.23;47.34;103409.81;4955183;29;20032;-68
2022/01/14 08:05:00;;;;;;;16.13;6.93;;;;;;;10.21;47.50;103403.66;4955410;29;20034;-67
2022/01/14 08:07:28;;;;;;;14.20;6.80;;;;;;;10.25;47.28;103410.59;4955283;29;20473;-68
2022/01/14 08:09:53;;;;;;;15.68;6.75;;;;;;;10.23;47.40;103420.53;4955189;29;20126;-66
2022/01/14 08:12:19;;;;;;;12.43;7.15;;;;;;;10.25;47.54;103421.31;4955370;29;20075;-67
2022/01/14 08:14:44;;;;;;;16.48;6.60;;;;;;;10.26;47.25;103423.94;4955330;29;20038;-68
2022/01/14 08:17:11;;;;;;;22.48;8.98;;;;;;;10.28;47.08;103410.47;4955125;29;20517;-68
2022/01/14 08:19:37;;;;;;;17.48;8.32;;;;;;;10.29;47.59;103421.16;4955184;29;20054;-68
2022/01/14 08:22:04;;;;;;;24.42;8.75;;;;;;;10.31;47.25;103421.94;4955089;29;20035;-68
2022/01/14 08:24:30;;;;;;;17.50;8.00;;;;;;;10.33;47.63;103420.06;4955199;29;20075;-68
2022/01/14 08:26:56;;;;;;;13.75;7.22;;;;;;;10.35;47.61;103418.22;4938217;29;20031;-68
2022/01/14 08:29:21;;;;;;;20.15;7.43;;;;;;;10.39;47.06;103418.94;4955297;29;20094;-68
2022/01/14 08:31:46;;;;;;;20.73;8.07;;;;;;;10.40;47.41;103420.69;4954902;29;20555;-68
2022/01/14 08:34:12;;;;;;;19.00;8.82;;;;;;;10.48;47.48;103431.97;4954987;29;20027;-68
2022/01/14 08:36:37;;;;;;;17.80;7.88;;;;;;;10.55;47.46;103427.22;4937919;29;20469;-68
2022/01/14 08:39:03;;;;;;;24.70;8.25;;;;;;;10.59;47.08;103416.28;4958509;29;20034;-68
2022/01/14 08:41:30;;;;;;;18.85;7.57;;;;;;;10.63;47.44;103419.72;4958843;29;20027;-67
2022/01/14 08:43:57;;;;;;;16.00;7.97;;;;;;;10.65;47.16;103416.03;4958560;29;20023;-68
2022/01/14 08:46:23;;;;;;;12.40;7.15;;;;;;;10.71;47.39;103414.91;4958925;28;20043;-67
2022/01/14 08:48:48;;;;;;;16.25;6.90;;;;;;;10.74;47.23;103407.59;4925627;29;20027;-68
2022/01/14 08:51:15;;;;;;;17.80;6.97;;;;;;;10.78;47.53;103416.34;4958740;29;20118;-68
2022/01/14 08:53:40;;;;;;;13.00;5.97;;;;;;;10.83;47.35;103406.31;4958536;29;20480;-68
2022/01/14 08:56:06;;;;;;;15.30;7.25;;;;;;;10.90;46.83;103411.34;4958741;29;20031;-69
2022/01/14 08:58:32;;;;;;;16.33;8.25;;;;;;;11.01;47.15;103408.19;4958204;29;20027;-68
2022/01/14 09:00:57;;;;;;;12.27;7.05;;;;;;;11.10;47.44;103414.03;4958108;29;20425;-68
2022/01/14 09:03:23;;;;;;;17.55;7.03;;;;;;;11.17;47.16;103411.06;4958366;29;20054;-67
2022/01/14 09:05:48;;;;;;;12.15;7.07;;;;;;;11.27;46.79;103409.69;4958220;29;20086;-68
2022/01/14 09:08:13;;;;;;;15.30;7.38;;;;;;;11.31;46.99;103400.53;4958345;29;20019;-69
2022/01/14 09:10:39;;;;;;;16.02;6.15;;;;;;;11.37;46.83;103408.31;4958175;29;20042;-67
2022/01/14 09:13:05;;;;;;;18.63;6.93;;;;;;;11.43;46.73;103398.19;4958109;29;20464;-68
2022/01/14 09:15:30;;;;;;;15.45;6.32;;;;;;;11.48;47.09;103384.53;4940933;29;20031;-67
2022/01/14 09:17:55;;;;;;;16.92;6.78;;;;;;;11.56;46.90;103382.34;4957922;29;20031;-68
2022/01/14 09:20:21;;;;;;;15.68;7.72;;;;;;;11.63;46.56;103383.81;4957999;29;20113;-68
2022/01/14 09:22:51;;;;;;;18.15;7.47;;;;;;;11.70;46.59;103379.91;4957912;29;20039;-68
2022/01/14 09:25:19;;;;;;;16.65;7.18;;;;;;;11.77;47.10;103384.06;4958193;29;20127;-68
2022/01/14 09:27:47;;;;;;;14.93;6.80;;;;;;;11.87;46.66;103369.22;4957679;29;20035;-69
2022/01/14 09:30:12;;;;;;;13.93;6.85;;;;;;;11.98;46.29;103372.25;4957912;29;20495;-67
2022/01/14 09:32:38;;;;;;;16.25;8.18;;;;;;;12.08;47.11;103380.75;4940681;29;20031;-69
2022/01/14 09:35:06;;;;;;;23.10;7.90;;;;;;;12.20;46.58;103391.72;4957676;29;20028;-68
2022/01/14 09:37:32;;;;;;;16.42;7.97;;;;;;;12.32;47.03;103384.00;4940630;29;20026;-68
2022/01/14 09:39:57;;;;;;;15.55;7.63;;;;;;;12.41;46.37;103376.34;4957477;29;20078;-68
2022/01/14 09:42:23;;;;;;;20.63;8.35;;;;;;;12.56;46.66;103369.31;4957654;29;20429;-68
2022/01/14 09:44:48;;;;;;;16.10;8.40;;;;;;;12.84;46.22;103375.00;4957385;28;20070;-68
2022/01/14 09:47:18;;;;;;;16.98;8.55;;;;;;;13.18;45.88;103369.56;4957327;28;20067;-68
2022/01/14 09:49:44;;;;;;;17.73;9.00;;;;;;;13.59;45.58;103374.47;4956108;28;20032;-69
2022/01/14 09:52:11;;;;;;;26.20;8.82;;;;;;;14.00;44.88;103365.78;4957607;29;20528;-68
2022/01/14 09:54:37;;;;;;;21.77;9.15;;;;;;;14.41;43.97;103373.25;4940175;29;20058;-68
2022/01/14 09:57:03;;;;;;;17.77;9.85;;;;;;;14.82;44.11;103376.19;4957252;29;20031;-68
2022/01/14 09:59:28;;;;;;;18.45;9.77;;;;;;;15.21;43.55;103367.41;4941698;29;20074;-68
2022/01/14 10:01:54;;;;;;;20.13;8.80;;;;;;;15.60;44.83;103383.81;4957196;28;20623;-69
2022/01/14 10:04:21;;;;;;;23.05;9.07;;;;;;;15.95;43.41;103362.56;4957102;28;20539;-68
2022/01/14 10:06:53;;;;;;;18.00;9.05;;;;;;;16.24;42.77;103367.78;4957065;28;20031;-68
2022/01/14 10:09:40;;;;;;;28.45;9.55;;;;;;;16.59;43.54;103383.47;4939820;29;20030;-68
2022/01/14 10:12:13;;;;;;;24.75;9.70;;;;;;;16.85;43.18;103372.56;4956189;29;20477;-68
2022/01/14 10:14:51;;;;;;;24.83;8.65;;;;;;;17.06;43.21;103378.31;4957178;28;20035;-69
2022/01/14 10:17:17;;;;;;;21.17;9.50;;;;;;;17.32;42.51;103373.72;4957279;28;20062;-68
2022/01/14 10:19:44;;;;;;;28.80;8.57;;;;;;;17.55;42.31;103369.38;4957033;28;20480;-68
2022/01/14 10:22:30;;;;;;;17.70;8.40;;;;;;;17.80;42.85;103363.91;4957252;28;20047;-69
2022/01/14 10:25:12;;;;;;;21.23;9.00;;;;;;;18.01;42.85;103373.13;4957226;28;20112;-68
2022/01/14 10:27:42;;;;;;;23.10;8.68;;;;;;;18.19;41.93;103360.03;4957272;28;20078;-68
2022/01/14 10:30:33;;;;;;;20.35;9.15;;;;;;;18.36;41.78;103357.75;4955742;29;20027;-68
2022/01/14 10:33:03;;;;;;;17.38;9.43;;;;;;;18.56;41.46;103369.84;4956094;29;20031;-68
2022/01/14 10:35:31;;;;;;;26.42;10.25;;;;;;;18.73;41.08;103368.53;4957002;28;20023;-69
2022/01/14 10:38:01;;;;;;;16.73;9.10;;;;;;;18.88;41.37;103370.88;4957012;28;20027;-69
2022/01/14 10:40:29;;;;;;;19.15;8.95;;;;;;;19.03;40.92;103364.25;4956983;28;20413;-69
2022/01/14 10:43:03;;;;;;;22.80;10.13;;;;;;;19.19;40.86;103370.19;4956594;28;20230;-68
2022/01/14 10:45:29;;;;;;;26.52;10.73;;;;;;;19.33;40.88;103366.34;4955254;28;20115;-70
2022/01/14 10:47:57;;;;;;;22.33;9.55;;;;;;;19.45;40.78;103375.41;4956980;28;20119;-69
2022/01/14 10:50:41;;;;;;;18.70;10.30;;;;;;;19.52;40.96;103382.91;4957117;28;20042;-68
2022/01/14 10:53:22;;;;;;;21.30;10.90;;;;;;;19.58;40.97;103385.16;4956557;28;20023;-68
2022/01/14 10:55:50;;;;;;;20.80;10.38;;;;;;;19.73;40.53;103383.91;4956502;28;20436;-69
2022/01/14 10:58:22;;;;;;;26.00;12.57;;;;;;;19.87;40.41;103396.34;4956251;28;20110;-68
2022/01/14 11:00:51;;;;;;;21.58;11.52;;;;;;;19.95;40.33;103388.41;4955789;28;20059;-68
2022/01/14 11:03:56;;;;;;;23.27;11.18;;;;;;;19.88;39.94;103386.34;4939142;29;20118;-68
2022/01/14 11:06:26;;;;;;;23.52;12.05;;;;;;;19.69;40.94;103396.00;4955956;29;20066;-68
2022/01/14 11:08:59;;;;;;;29.95;13.00;;;;;;;19.50;40.85;103375.88;4955993;29;20024;-69
2022/01/14 11:11:26;;;;;;;25.48;12.32;;;;;;;19.48;41.15;103369.72;4938729;29;20093;-69
2022/01/14 11:13:51;;;;;;;28.83;12.73;;;;;;;19.69;40.21;103374.25;4956304;29;20424;-69
2022/01/14 11:16:17;;;;;;;25.83;12.75;;;;;;;19.38;40.78;103374.13;4955959;29;20058;-67
2022/01/14 11:18:44;;;;;;;29.73;14.45;;;;;;;19.14;41.09;103363.38;4956044;29;20027;-68
2022/01/14 11:23:54;;;;;;;31.52;13.43;;;;;;;19.41;40.40;103358.47;4956122;29;20030;-68
2022/01/14 11:26:20;;;;;;;31.52;13.98;;;;;;;19.55;40.22;103349.16;4938849;29;20031;-68
2022/01/14 11:28:46;;;;;;;29.15;13.90;;;;;;;19.73;39.86;103347.66;4938842;29;20019;-68
2022/01/14 11:31:28;;;;;;;31.60;13.25;;;;;;;19.81;39.99;103345.19;4938856;29;20023;-68
2022/01/14 11:33:54;;;;;;;31.15;14.57;;;;;;;19.88;40.12;103330.06;4955756;29;20034;-68
2022/01/14 11:36:19;;;;;;;25.88;13.18;;;;;;;19.83;39.91;103335.03;4955764;29;20027;-68
2022/01/14 11:38:46;;;;;;;28.52;13.43;;;;;;;19.87;39.74;103344.66;4938835;29;20027;-67
2022/01/14 11:41:16;;;;;;;26.58;13.25;;;;;;;19.83;40.16;103343.19;4956080;29;20480;-68